KARR/ARR METAR and TAF weather

Enter ICAO airport designator
Station Type Date Time Source
KARR METAR 2021/05/10 00:52 UTC NOAA

KARR 100052Z 06005KT 10SM CLR 10/M01 A3000 RMK AO2 SLP163 T01001006


Station Type Date Time Source
KARR Decoded METAR 2021/05/10 00:52 UTC NOAA

CHICAGO AURORA MUNICIPAL, IL, United States (KARR) 41-46N 088-28W 215M
May 09, 2021 - 08:52 PM EDT / 2021.05.10 0052 UTC
Wind: from the ENE (060 degrees) at 6 MPH (5 KT):0
Visibility: 10 mile(s):0
Sky conditions: clear
Temperature: 50.0 F (10.0 C)
Dew Point: 30.9 F (-0.6 C)
Relative Humidity: 47%
Pressure (altimeter): 30 in. Hg (1015 hPa)
ob: KARR 100052Z 06005KT 10SM CLR 10/M01 A3000 RMK AO2 SLP163 T01001006
cycle: 1

Station Type Date Time Source
KARR TAF UTC NOAA

Error!

Example: see airport list